Time;durP1;ratioP1;P1;durP2;ratioP2;P2;SDS_P1;SDS_P2;PMS_P1;PMS_P2;Temp;Humidity;BMP_temperature;BMP_pressure;BME280_temperature;BME280_humidity;BME280_pressure;Samples;Min_cycle;Max_cycle;Signal;HPM_P1;HPM_P2
2022/04/23 00:02:04;;;;;;;12.93;10.50;;;12.00;99.90;;;;;;5114140;27;20043;-79
2022/04/23 00:04:32;;;;;;;12.82;10.40;;;12.00;99.90;;;;;;5109068;27;20603;-80
2022/04/23 00:07:01;;;;;;;14.40;11.90;;;11.90;99.90;;;;;;5099973;27;20062;-78
2022/04/23 00:09:27;;;;;;;14.38;11.73;;;11.90;99.90;;;;;;5112729;27;20039;-80
2022/04/23 00:11:55;;;;;;;12.82;11.32;;;11.80;99.90;;;;;;5107627;27;20134;-80
2022/04/23 00:14:24;;;;;;;13.40;11.73;;;11.80;99.90;;;;;;5119861;27;20054;-80
2022/04/23 00:16:50;;;;;;;12.95;11.52;;;11.80;99.90;;;;;;5123482;27;20047;-82
2022/04/23 00:19:20;;;;;;;13.70;11.63;;;11.70;99.90;;;;;;5104009;27;20050;-82
2022/04/23 00:21:46;;;;;;;15.18;12.13;;;11.70;99.90;;;;;;5105427;27;20474;-81
2022/04/23 00:24:12;;;;;;;12.65;11.43;;;11.50;99.90;;;;;;5103049;27;20167;-77
2022/04/23 00:26:40;;;;;;;12.63;11.32;;;11.60;99.90;;;;;;5123891;27;20498;-80
2022/04/23 00:29:06;;;;;;;13.60;11.70;;;11.50;99.90;;;;;;5123434;27;20055;-81
2022/04/23 00:31:36;;;;;;;15.57;12.57;;;11.50;99.90;;;;;;5106511;27;20075;-78
2022/04/23 00:34:03;;;;;;;16.95;13.25;;;11.50;99.90;;;;;;5122844;27;20173;-81
2022/04/23 00:36:29;;;;;;;13.63;12.23;;;11.40;99.90;;;;;;5126145;27;20118;-82
2022/04/23 00:38:56;;;;;;;16.95;13.00;;;11.40;99.90;;;;;;5124785;27;20130;-83
2022/04/23 00:44:07;;;;;;;16.33;14.02;;;11.30;99.90;;;;;;5120941;27;20047;-82
2022/04/23 00:46:33;;;;;;;15.70;14.07;;;11.30;99.90;;;;;;5106849;27;20047;-78
2022/04/23 00:48:59;;;;;;;15.07;13.57;;;11.30;99.90;;;;;;5124814;27;20089;-80
2022/04/23 00:51:30;;;;;;;15.70;14.10;;;11.30;99.90;;;;;;5120873;27;20127;-81
2022/04/23 00:53:56;;;;;;;;;;;11.40;99.90;;;;;;5119697;27;20453;-80
2022/04/23 00:56:23;;;;;;;16.77;14.90;;;11.40;99.90;;;;;;5104751;27;19954;-79
2022/04/23 00:58:50;;;;;;;16.52;14.82;;;11.30;99.90;;;;;;5099853;27;20047;-79
2022/04/23 01:01:16;;;;;;;16.50;14.90;;;11.30;99.90;;;;;;5121478;27;20032;-80
2022/04/23 01:03:45;;;;;;;20.33;14.63;;;11.30;99.90;;;;;;5101628;27;20050;-80
2022/04/23 01:06:11;;;;;;;16.08;14.40;;;11.20;99.90;;;;;;5104036;27;20046;-79
2022/04/23 01:08:37;;;;;;;18.33;15.45;;;11.20;99.90;;;;;;5103994;27;20039;-80
2022/04/23 01:11:04;;;;;;;16.85;14.85;;;11.20;99.90;;;;;;5104260;27;20039;-81
2022/04/23 01:13:29;;;;;;;16.35;14.75;;;11.20;99.90;;;;;;5118448;27;20568;-79
2022/04/23 01:16:00;;;;;;;16.67;14.95;;;11.20;99.90;;;;;;5121413;27;20043;-78
2022/04/23 01:18:26;;;;;;;17.20;15.40;;;11.10;99.90;;;;;;5122903;27;20750;-82
2022/04/23 01:20:56;;;;;;;16.15;14.45;;;11.10;99.90;;;;;;5104523;27;20159;-80
2022/04/23 01:23:23;;;;;;;16.52;14.68;;;11.10;99.90;;;;;;5106773;27;20043;-81
2022/04/23 01:25:53;;;;;;;16.27;14.55;;;11.00;99.90;;;;;;5120531;27;20643;-81
2022/04/23 01:28:23;;;;;;;16.65;15.02;;;10.90;99.90;;;;;;5089751;27;20449;-80
2022/04/23 01:30:53;;;;;;;;;;;11.00;99.90;;;;;;5123842;27;20051;-81
2022/04/23 01:33:20;;;;;;;16.35;14.48;;;10.90;99.90;;;;;;5121987;27;20365;-80
2022/04/23 01:35:46;;;;;;;16.50;14.30;;;10.90;99.90;;;;;;5104160;27;20676;-80
2022/04/23 01:38:13;;;;;;;16.98;15.35;;;10.90;99.90;;;;;;5103738;27;20089;-78
2022/04/23 01:40:39;;;;;;;16.27;14.70;;;10.90;99.90;;;;;;5089357;27;20051;-82
2022/04/23 01:43:05;;;;;;;14.70;12.95;;;10.80;99.90;;;;;;5141482;27;20049;-82
2022/04/23 01:45:32;;;;;;;15.07;13.68;;;10.80;99.90;;;;;;5121741;27;20481;-81
2022/04/23 01:48:00;;;;;;;14.25;12.77;;;10.70;99.90;;;;;;5105419;27;20043;-81
2022/04/23 01:50:26;;;;;;;15.52;13.02;;;10.70;99.90;;;;;;5089904;27;20039;-77
2022/04/23 01:52:52;;;;;;;14.38;12.10;;;10.60;99.90;;;;;;5122746;27;20034;-81
2022/04/23 01:55:18;;;;;;;16.85;12.48;;;10.60;99.90;;;;;;5088687;27;20038;-81
2022/04/23 01:57:44;;;;;;;14.55;13.05;;;10.60;99.90;;;;;;5073198;27;20049;-81
2022/04/23 02:00:13;;;;;;;15.07;13.48;;;10.50;99.90;;;;;;5120582;27;20035;-81
2022/04/23 02:02:40;;;;;;;14.93;12.50;;;10.50;99.90;;;;;;5107454;27;20054;-78
2022/04/23 02:05:07;;;;;;;15.77;13.45;;;10.50;99.90;;;;;;5090811;27;20053;-81
2022/04/23 02:07:40;;;;;;;14.65;13.07;;;10.40;99.90;;;;;;5107905;27;20047;-81
2022/04/23 02:10:15;;;;;;;16.08;13.30;;;10.50;99.90;;;;;;5111610;27;20687;-80
2022/04/23 02:12:41;;;;;;;16.58;13.35;;;10.40;99.90;;;;;;5126576;27;20061;-81
2022/04/23 02:15:11;;;;;;;13.73;12.32;;;10.40;99.90;;;;;;5108953;27;20039;-78
2022/04/23 02:17:39;;;;;;;15.27;13.68;;;10.30;99.90;;;;;;5111781;27;20082;-80
2022/04/23 02:20:06;;;;;;;15.75;13.75;;;10.30;99.90;;;;;;5104543;27;20055;-80
2022/04/23 02:22:35;;;;;;;15.30;13.68;;;10.30;99.90;;;;;;5129154;27;20062;-80
2022/04/23 02:25:01;;;;;;;16.58;14.63;;;10.20;99.90;;;;;;5112091;27;20047;-78
2022/04/23 02:27:30;;;;;;;15.63;14.02;;;10.20;99.90;;;;;;5128660;27;20181;-81
2022/04/23 02:29:55;;;;;;;15.00;13.45;;;10.20;99.90;;;;;;5094302;27;20042;-80
2022/04/23 02:32:21;;;;;;;15.60;13.93;;;10.10;99.90;;;;;;5110965;27;20063;-81
2022/04/23 02:34:47;;;;;;;16.33;14.73;;;10.10;99.90;;;;;;5124226;27;20042;-82
2022/04/23 02:37:14;;;;;;;16.45;14.30;;;10.10;99.90;;;;;;5110068;27;20035;-81
2022/04/23 02:39:41;;;;;;;16.08;14.07;;;10.10;99.90;;;;;;5093155;27;20080;-80
2022/04/23 02:42:09;;;;;;;17.02;14.60;;;10.10;99.90;;;;;;5093344;27;20042;-79
2022/04/23 02:44:35;;;;;;;16.85;15.13;;;10.00;99.90;;;;;;5109288;27;20054;-78
2022/04/23 02:47:04;;;;;;;15.80;14.13;;;10.00;99.90;;;;;;5126543;27;20409;-79
2022/04/23 02:49:30;;;;;;;16.55;14.85;;;10.00;99.90;;;;;;5075527;27;20051;-82
2022/04/23 02:51:55;;;;;;;16.85;15.05;;;10.00;99.90;;;;;;5109256;27;20103;-81
2022/04/23 02:54:21;;;;;;;18.27;15.55;;;9.90;99.90;;;;;;5103495;27;20628;-80
2022/04/23 02:56:48;;;;;;;18.98;16.15;;;9.90;99.90;;;;;;5107121;27;20130;-80
2022/04/23 02:59:14;;;;;;;17.42;15.60;;;9.80;99.90;;;;;;5091486;27;20730;-81
2022/04/23 03:01:40;;;;;;;17.77;15.93;;;9.80;99.90;;;;;;5109314;27;20054;-79
2022/04/23 03:04:05;;;;;;;18.02;16.15;;;9.80;99.90;;;;;;5106988;27;20039;-81
2022/04/23 03:06:35;;;;;;;17.70;15.88;;;9.70;99.90;;;;;;5126286;27;20050;-81
2022/04/23 03:09:03;;;;;;;18.90;15.77;;;9.70;99.90;;;;;;5092283;27;20635;-80
2022/04/23 03:11:35;;;;;;;17.67;15.77;;;9.70;99.90;;;;;;5091124;27;20035;-80
2022/04/23 03:14:03;;;;;;;17.73;15.65;;;9.70;99.90;;;;;;5108093;27;20050;-81
2022/04/23 03:16:29;;;;;;;17.08;15.48;;;9.70;99.90;;;;;;5090036;27;20047;-80
2022/04/23 03:18:58;;;;;;;17.65;15.77;;;9.70;99.90;;;;;;5125754;27;20042;-81
2022/04/23 03:21:24;;;;;;;17.90;15.77;;;9.70;99.90;;;;;;5125928;27;20073;-77
2022/04/23 03:23:50;;;;;;;18.83;16.42;;;9.60;99.90;;;;;;5126240;27;20054;-79
2022/04/23 03:26:16;;;;;;;18.33;16.42;;;9.70;99.90;;;;;;5071956;27;20532;-80
2022/04/23 03:28:42;;;;;;;20.25;16.10;;;9.70;99.90;;;;;;5126129;27;20047;-81
2022/04/23 03:31:08;;;;;;;17.00;15.27;;;9.60;99.90;;;;;;5108297;27;20536;-80
2022/04/23 03:33:34;;;;;;;18.52;16.67;;;9.60;99.90;;;;;;5125610;27;20115;-80
2022/04/23 03:36:01;;;;;;;19.17;16.05;;;9.60;99.90;;;;;;5091476;27;20526;-81
2022/04/23 03:38:27;;;;;;;19.13;17.23;;;9.60;99.90;;;;;;5110013;27;20035;-81
2022/04/23 03:40:56;;;;;;;18.13;16.33;;;9.60;99.90;;;;;;5107524;27;20269;-81
2022/04/23 03:43:25;;;;;;;18.70;16.70;;;9.60;99.90;;;;;;5088977;27;20507;-81
2022/04/23 03:45:54;;;;;;;17.73;15.90;;;9.50;99.90;;;;;;5106150;27;20046;-80
2022/04/23 03:48:20;;;;;;;17.98;16.08;;;9.60;99.90;;;;;;5107906;27;20043;-81
2022/04/23 03:50:49;;;;;;;17.23;15.50;;;9.50;99.90;;;;;;5106994;27;20096;-80
2022/04/23 03:53:15;;;;;;;17.67;15.98;;;9.50;99.90;;;;;;5108473;27;20046;-80
2022/04/23 03:55:41;;;;;;;18.30;16.50;;;9.50;99.90;;;;;;5124488;27;20050;-81
2022/04/23 03:58:08;;;;;;;17.60;15.82;;;9.50;99.90;;;;;;5091894;27;20138;-80
2022/04/23 04:00:34;;;;;;;18.85;16.77;;;9.40;99.90;;;;;;5089473;27;20269;-80
2022/04/23 04:03:00;;;;;;;17.70;15.85;;;9.40;99.90;;;;;;5126583;27;20603;-80
2022/04/23 04:05:28;;;;;;;18.13;16.30;;;9.40;99.90;;;;;;5127809;27;20078;-81
2022/04/23 04:07:54;;;;;;;18.08;16.33;;;9.40;99.90;;;;;;5110720;27;20051;-80
2022/04/23 04:10:21;;;;;;;18.67;16.50;;;9.40;99.90;;;;;;5107415;27;20115;-81
2022/04/23 04:12:48;;;;;;;17.45;15.75;;;9.40;99.90;;;;;;5105925;27;20439;-79
2022/04/23 04:15:16;;;;;;;23.65;16.08;;;9.30;99.90;;;;;;5136880;27;20038;-79
2022/04/23 04:17:44;;;;;;;18.25;16.45;;;9.30;99.90;;;;;;5125030;27;20695;-80
2022/04/23 04:20:12;;;;;;;18.42;16.60;;;9.30;99.90;;;;;;5104746;27;20162;-80
2022/04/23 04:22:42;;;;;;;18.08;16.27;;;9.30;99.90;;;;;;5088743;27;20055;-79
2022/04/23 04:25:09;;;;;;;17.92;16.00;;;9.20;99.90;;;;;;5124822;27;20031;-80
2022/04/23 04:27:36;;;;;;;18.02;16.27;;;9.20;99.90;;;;;;5088171;27;20051;-79
2022/04/23 04:30:04;;;;;;;17.75;15.75;;;9.20;99.90;;;;;;5124452;27;20035;-79
2022/04/23 04:32:31;;;;;;;17.73;15.95;;;9.20;99.90;;;;;;5125382;27;20050;-80
2022/04/23 04:34:57;;;;;;;18.05;16.25;;;9.20;99.90;;;;;;5106571;27;20047;-79
2022/04/23 04:37:23;;;;;;;17.92;16.08;;;9.20;99.90;;;;;;5124859;27;20876;-77
2022/04/23 04:39:49;;;;;;;17.90;16.20;;;9.20;99.90;;;;;;5123899;27;20035;-80
2022/04/23 04:42:15;;;;;;;17.33;15.65;;;9.10;99.90;;;;;;5124339;27;20074;-81
2022/04/23 04:44:41;;;;;;;17.65;15.85;;;9.10;99.90;;;;;;5121271;27;20053;-79
2022/04/23 04:47:09;;;;;;;16.88;15.15;;;9.10;99.90;;;;;;5142312;27;20062;-78
2022/04/23 04:49:35;;;;;;;16.88;15.30;;;9.10;99.90;;;;;;5107559;27;20030;-79
2022/04/23 04:52:02;;;;;;;17.10;15.27;;;9.10;99.90;;;;;;5124322;27;20118;-80
2022/04/23 04:54:27;;;;;;;16.75;15.05;;;9.10;99.90;;;;;;5121317;27;20050;-77
2022/04/23 04:56:54;;;;;;;17.00;15.40;;;9.10;99.90;;;;;;5107057;27;20050;-80
2022/04/23 04:59:23;;;;;;;16.58;14.95;;;9.10;99.90;;;;;;5141778;27;20085;-79
2022/04/23 05:01:50;;;;;;;17.90;16.10;;;9.20;99.90;;;;;;5121832;27;20083;-78
2022/04/23 05:04:17;;;;;;;15.52;14.10;;;9.20;99.90;;;;;;5089755;27;20047;-81
2022/04/23 05:06:43;;;;;;;16.13;14.57;;;9.20;99.90;;;;;;5103257;27;20085;-80
2022/04/23 05:09:09;;;;;;;15.75;14.25;;;9.20;99.90;;;;;;5105333;27;20070;-81
2022/04/23 05:11:38;;;;;;;16.65;15.05;;;9.30;99.90;;;;;;5107328;27;20074;-81
2022/04/23 05:14:04;;;;;;;15.98;14.57;;;9.30;99.90;;;;;;5121252;27;20042;-81
2022/04/23 05:16:30;;;;;;;16.10;14.32;;;9.30;99.90;;;;;;5107224;27;20070;-78
2022/04/23 05:18:56;;;;;;;15.48;14.07;;;9.40;99.90;;;;;;5107087;27;20051;-77
2022/04/23 05:21:21;;;;;;;15.10;13.73;;;9.50;99.90;;;;;;5125199;27;20058;-82
2022/04/23 05:23:47;;;;;;;14.80;13.38;;;9.50;99.90;;;;;;5107774;27;20051;-80
2022/04/23 05:26:13;;;;;;;14.77;13.30;;;9.50;99.90;;;;;;5104490;27;20070;-80
2022/04/23 05:28:41;;;;;;;15.40;14.00;;;9.60;99.90;;;;;;5122145;27;20145;-77
2022/04/23 05:31:08;;;;;;;14.60;13.30;;;9.70;99.90;;;;;;5125210;27;20042;-81
2022/04/23 05:33:34;;;;;;;14.48;13.00;;;9.80;99.90;;;;;;5108865;27;20061;-76
2022/04/23 05:36:01;;;;;;;13.85;12.55;;;9.90;99.90;;;;;;5143323;27;20047;-76
2022/04/23 05:38:27;;;;;;;14.57;13.15;;;9.90;99.90;;;;;;5124735;27;20433;-77
2022/04/23 05:40:52;;;;;;;14.38;13.05;;;10.00;99.90;;;;;;5107230;27;20070;-80
2022/04/23 05:43:18;;;;;;;13.93;12.63;;;10.00;99.90;;;;;;5109744;27;20077;-79
2022/04/23 05:45:44;;;;;;;13.82;12.52;;;10.10;99.90;;;;;;5094500;27;20047;-76
2022/04/23 05:48:10;;;;;;;15.00;13.50;;;10.10;99.90;;;;;;5129427;27;20043;-77
2022/04/23 05:50:36;;;;;;;14.48;13.23;;;10.20;99.90;;;;;;5113299;27;20042;-78
2022/04/23 05:53:05;;;;;;;14.45;13.05;;;10.20;99.90;;;;;;5128959;27;20486;-78
2022/04/23 05:55:31;;;;;;;14.52;13.13;;;10.30;99.90;;;;;;5128368;27;20531;-77
2022/04/23 05:57:57;;;;;;;15.30;13.85;;;10.30;99.90;;;;;;5112142;27;20047;-79
2022/04/23 06:00:22;;;;;;;14.50;13.20;;;10.30;99.90;;;;;;5111819;27;20042;-79
2022/04/23 06:02:48;;;;;;;14.50;13.25;;;10.40;99.90;;;;;;5112058;27;20058;-78
2022/04/23 06:05:14;;;;;;;15.27;13.98;;;10.40;99.90;;;;;;5111835;27;20133;-74
2022/04/23 06:07:40;;;;;;;14.73;13.32;;;10.40;99.90;;;;;;5128438;27;20093;-75
2022/04/23 06:10:06;;;;;;;15.27;13.77;;;10.50;99.90;;;;;;5094298;27;20074;-76
2022/04/23 06:12:34;;;;;;;14.85;13.52;;;10.50;99.90;;;;;;5111290;27;20043;-75
2022/04/23 06:15:00;;;;;;;15.02;13.57;;;10.50;99.90;;;;;;5110295;27;20066;-75
2022/04/23 06:17:28;;;;;;;15.13;13.73;;;10.60;99.90;;;;;;5127973;27;20721;-75
2022/04/23 06:19:55;;;;;;;15.98;14.40;;;10.70;99.90;;;;;;5127977;27;20089;-79
2022/04/23 06:22:22;;;;;;;14.02;12.63;;;10.80;99.90;;;;;;5110902;27;20043;-74
2022/04/23 06:24:48;;;;;;;15.00;13.60;;;10.80;99.90;;;;;;5112307;27;20078;-75
2022/04/23 06:27:14;;;;;;;15.15;13.73;;;10.90;99.90;;;;;;5128096;27;20073;-74
2022/04/23 06:29:40;;;;;;;14.98;13.48;;;10.90;99.90;;;;;;5094619;27;20165;-75
2022/04/23 06:32:07;;;;;;;16.50;14.85;;;10.90;99.90;;;;;;5111584;27;20053;-79
2022/04/23 06:34:34;;;;;;;14.55;13.05;;;11.00;99.90;;;;;;5110855;27;20043;-75
2022/04/23 06:36:59;;;;;;;15.40;13.90;;;11.00;99.90;;;;;;5110316;27;20210;-75
2022/04/23 06:39:25;;;;;;;16.70;13.57;;;11.00;99.90;;;;;;5110417;27;20114;-77
2022/04/23 06:41:51;;;;;;;15.18;13.68;;;11.10;99.90;;;;;;5110913;27;20429;-75
2022/04/23 06:44:17;;;;;;;15.52;14.00;;;11.10;99.90;;;;;;5143294;27;20085;-78
2022/04/23 06:46:44;;;;;;;15.13;13.50;;;11.20;99.90;;;;;;5075499;27;20501;-76
2022/04/23 06:49:11;;;;;;;15.68;14.18;;;11.20;99.90;;;;;;5108167;27;20770;-76
2022/04/23 06:51:37;;;;;;;15.32;13.93;;;11.30;99.90;;;;;;5125034;27;20046;-74
2022/04/23 06:54:04;;;;;;;15.68;14.13;;;11.40;99.90;;;;;;5105962;27;20129;-81
2022/04/23 06:56:31;;;;;;;15.52;13.25;;;11.40;99.90;;;;;;5127181;27;20047;-74
2022/04/23 06:58:57;;;;;;;16.00;14.20;;;11.50;99.90;;;;;;5109118;27;20039;-77
2022/04/23 07:01:23;;;;;;;15.55;13.98;;;11.60;99.90;;;;;;5108121;27;20054;-82
2022/04/23 07:03:49;;;;;;;15.50;14.10;;;11.70;99.90;;;;;;5109740;27;20055;-74
2022/04/23 07:06:16;;;;;;;14.85;13.35;;;11.80;99.90;;;;;;5126450;27;20039;-77
2022/04/23 07:08:44;;;;;;;16.17;13.40;;;11.80;99.90;;;;;;5127228;27;20103;-76
2022/04/23 07:11:13;;;;;;;15.40;13.80;;;11.90;99.90;;;;;;5125430;27;20839;-80
2022/04/23 07:13:39;;;;;;;16.27;14.60;;;12.00;99.90;;;;;;5108728;27;20129;-78
2022/04/23 07:16:05;;;;;;;15.60;14.02;;;12.10;99.90;;;;;;5108824;27;20117;-78
2022/04/23 07:18:33;;;;;;;16.92;14.27;;;12.20;99.90;;;;;;5091754;27;20034;-78
2022/04/23 07:20:59;;;;;;;14.80;13.30;;;12.30;99.90;;;;;;5125401;27;20045;-78
2022/04/23 07:26:11;;;;;;;15.25;13.65;;;12.50;99.90;;;;;;5126381;27;20046;-76
2022/04/23 07:28:37;;;;;;;14.77;13.27;;;12.50;99.90;;;;;;5121164;27;20047;-78
2022/04/23 07:31:04;;;;;;;15.63;13.43;;;12.60;99.90;;;;;;5123778;27;20055;-75
2022/04/23 07:38:58;;;;;;;14.95;13.43;;;13.00;99.90;;;;;;5115885;27;20091;-73
2022/04/23 07:41:24;;;;;;;14.75;13.25;;;13.00;99.90;;;;;;5063906;27;20842;-75
2022/04/23 07:43:49;;;;;;;14.70;13.10;;;13.10;99.40;;;;;;5085120;27;20142;-74
2022/04/23 07:46:15;;;;;;;13.48;11.43;;;13.10;99.90;;;;;;5081748;27;20122;-74
2022/04/23 07:48:41;;;;;;;13.50;12.20;;;13.20;99.20;;;;;;5086008;27;20050;-79
2022/04/23 07:51:08;;;;;;;15.60;12.55;;;13.30;98.60;;;;;;5114677;27;20068;-73
2022/04/23 07:53:34;;;;;;;13.13;11.82;;;13.40;97.50;;;;;;5090828;27;20137;-76
2022/04/23 07:56:00;;;;;;;16.40;13.27;;;13.50;96.70;;;;;;5107949;27;20062;-77
2022/04/23 07:58:25;;;;;;;12.23;11.02;;;13.50;97.30;;;;;;5074361;27;20039;-73
2022/04/23 08:00:51;;;;;;;12.48;11.27;;;13.60;96.20;;;;;;5121903;27;20047;-75
2022/04/23 08:03:17;;;;;;;12.38;11.18;;;13.70;95.70;;;;;;5090635;27;20489;-74
2022/04/23 08:05:43;;;;;;;15.77;11.18;;;13.90;94.30;;;;;;5107387;27;20057;-74
2022/04/23 08:08:08;;;;;;;11.82;10.65;;;14.00;89.30;;;;;;5100301;27;20047;-75
2022/04/23 08:10:34;;;;;;;13.15;10.88;;;14.00;90.50;;;;;;5096063;27;20039;-80
2022/04/23 08:13:01;;;;;;;11.95;10.52;;;14.10;90.80;;;;;;5117713;27;20043;-76
2022/04/23 08:15:27;;;;;;;12.98;11.57;;;14.20;89.20;;;;;;5117616;27;20043;-76
2022/04/23 08:17:53;;;;;;;12.20;11.07;;;14.30;89.70;;;;;;5100923;27;20317;-75
2022/04/23 08:20:20;;;;;;;11.77;10.65;;;14.40;84.60;;;;;;5085865;27;20118;-77
2022/04/23 08:22:46;;;;;;;11.82;10.70;;;14.30;86.50;;;;;;5104767;27;20134;-77
2022/04/23 08:25:12;;;;;;;12.10;10.73;;;14.50;85.50;;;;;;5105240;27;20592;-75
2022/04/23 08:27:55;;;;;;;11.50;10.30;;;14.50;82.10;;;;;;5116183;27;20517;-78
2022/04/23 08:30:37;;;;;;;12.68;10.38;;;14.60;81.20;;;;;;5121607;27;20057;-73
2022/04/23 08:33:07;;;;;;;11.68;10.50;;;14.50;79.90;;;;;;5103864;27;20678;-78
2022/04/23 08:35:35;;;;;;;11.60;10.43;;;14.50;79.70;;;;;;5119563;27;20042;-78
2022/04/23 08:38:01;;;;;;;12.80;10.40;;;14.70;78.20;;;;;;5104264;27;20139;-77
2022/04/23 08:40:29;;;;;;;12.52;11.23;;;14.70;79.60;;;;;;5068395;27;20091;-72
2022/04/23 08:42:57;;;;;;;12.13;11.02;;;14.90;75.90;;;;;;5111924;27;20129;-77
2022/04/23 08:45:23;;;;;;;14.30;10.38;;;14.90;74.20;;;;;;5065897;27;20042;-75
2022/04/23 08:47:51;;;;;;;11.38;10.25;;;14.90;74.30;;;;;;5086862;27;20557;-73
2022/04/23 08:50:20;;;;;;;14.55;10.95;;;15.00;71.40;;;;;;5122424;27;20051;-74
2022/04/23 08:52:57;;;;;;;12.00;10.90;;;14.90;71.60;;;;;;5121590;27;20050;-73
2022/04/23 08:55:26;;;;;;;11.90;10.63;;;14.90;73.50;;;;;;5106391;27;20122;-76
2022/04/23 08:57:52;;;;;;;12.23;10.55;;;15.10;73.40;;;;;;5124576;27;20078;-75
2022/04/23 09:00:18;;;;;;;11.27;10.13;;;15.10;74.00;;;;;;5123158;27;20106;-75
2022/04/23 09:02:44;;;;;;;12.23;10.80;;;15.30;71.00;;;;;;5105618;27;20058;-77
2022/04/23 09:05:13;;;;;;;11.43;10.23;;;15.30;68.60;;;;;;5105978;27;20043;-76
2022/04/23 09:07:51;;;;;;;18.33;10.88;;;15.30;69.50;;;;;;5120400;27;20053;-77
2022/04/23 09:10:16;;;;;;;15.27;10.93;;;15.40;71.40;;;;;;5105628;27;20268;-78
2022/04/23 09:12:56;;;;;;;13.70;10.45;;;15.50;68.70;;;;;;5106230;27;20057;-74
2022/04/23 09:24:03;;;;;;;11.90;10.60;;;15.90;64.80;;;;;;5107317;27;20066;-76
2022/04/23 09:26:30;;;;;;;13.90;11.18;;;16.00;63.20;;;;;;5108289;27;20046;-76
2022/04/23 09:28:57;;;;;;;13.00;10.77;;;15.90;62.30;;;;;;5125137;27;20062;-75
2022/04/23 09:31:24;;;;;;;13.15;10.18;;;15.90;63.50;;;;;;5088771;27;20054;-77
2022/04/23 09:33:54;;;;;;;11.68;10.43;;;16.00;62.60;;;;;;5120134;27;20051;-78
2022/04/23 09:36:20;;;;;;;10.63;9.20;;;16.00;63.30;;;;;;5104865;27;20078;-78
2022/04/23 09:39:05;;;;;;;11.23;9.98;;;16.10;62.00;;;;;;5104695;27;20697;-76
2022/04/23 09:41:35;;;;;;;13.25;10.32;;;16.30;62.30;;;;;;5123601;27;20039;-74
2022/04/23 09:44:09;;;;;;;11.20;9.82;;;16.40;60.70;;;;;;5107090;27;20122;-75
2022/04/23 09:46:49;;;;;;;11.48;10.32;;;16.40;59.80;;;;;;5138766;27;20552;-74
2022/04/23 09:49:22;;;;;;;11.85;9.65;;;16.40;58.90;;;;;;5104078;27;20829;-75
2022/04/23 09:52:06;;;;;;;12.50;9.57;;;16.40;59.90;;;;;;5108634;27;20057;-74
2022/04/23 09:54:33;;;;;;;11.48;9.57;;;16.50;59.40;;;;;;5100530;27;20485;-77
2022/04/23 09:57:00;;;;;;;11.90;10.70;;;16.50;58.10;;;;;;5094383;27;20042;-74
2022/04/23 09:59:27;;;;;;;11.70;9.48;;;16.60;58.30;;;;;;5116967;27;20034;-73
2022/04/23 10:01:55;;;;;;;11.32;10.13;;;16.60;58.70;;;;;;5088906;27;20042;-75
2022/04/23 10:04:25;;;;;;;12.93;9.63;;;16.60;57.70;;;;;;5116815;27;20043;-73
2022/04/23 10:06:52;;;;;;;15.77;10.50;;;16.60;57.60;;;;;;5119553;27;20034;-75
2022/04/23 10:09:21;;;;;;;11.27;10.07;;;16.50;58.40;;;;;;5112457;27;20111;-77
2022/04/23 10:12:05;;;;;;;11.85;10.65;;;16.60;58.80;;;;;;5119528;27;20759;-75
2022/04/23 10:14:40;;;;;;;17.58;10.85;;;16.60;59.10;;;;;;5122584;27;20146;-76
2022/04/23 10:17:10;;;;;;;10.75;9.40;;;16.70;58.80;;;;;;5107357;27;20070;-80
2022/04/23 10:19:37;;;;;;;10.00;8.93;;;16.90;58.80;;;;;;5089281;27;20042;-78
2022/04/23 10:22:14;;;;;;;9.27;8.38;;;17.00;58.20;;;;;;5108382;27;20492;-76
2022/04/23 10:24:56;;;;;;;19.63;10.07;;;17.20;58.10;;;;;;5108695;27;20536;-74
2022/04/23 10:27:25;;;;;;;10.75;9.75;;;17.20;55.40;;;;;;5105318;27;20659;-75
2022/04/23 10:30:03;;;;;;;12.10;9.93;;;17.10;56.90;;;;;;5141851;27;20411;-74
2022/04/23 10:32:39;;;;;;;11.02;9.95;;;17.20;57.20;;;;;;5111482;27;20053;-75
2022/04/23 10:35:32;;;;;;;14.40;10.43;;;17.20;56.50;;;;;;5125908;27;20504;-78
2022/04/23 10:38:15;;;;;;;11.73;10.52;;;17.20;55.90;;;;;;5107647;27;20069;-73
2022/04/23 10:40:42;;;;;;;14.35;9.90;;;17.30;56.40;;;;;;5128424;27;20051;-79
2022/04/23 10:43:10;;;;;;;12.98;8.23;;;17.40;57.10;;;;;;5093087;27;20554;-77
2022/04/23 10:45:38;;;;;;;13.18;9.82;;;17.40;56.40;;;;;;5129309;27;20039;-78
2022/04/23 10:48:24;;;;;;;12.02;10.10;;;17.50;54.50;;;;;;5128472;27;20150;-78
2022/04/23 10:51:10;;;;;;;11.57;8.95;;;17.50;54.30;;;;;;5128151;27;20047;-75
2022/04/23 10:53:39;;;;;;;11.68;9.02;;;17.50;53.10;;;;;;5128616;27;20051;-76
2022/04/23 10:56:07;;;;;;;11.55;8.32;;;17.30;53.10;;;;;;5142460;27;20071;-73
2022/04/23 10:58:37;;;;;;;10.68;9.40;;;17.30;52.60;;;;;;5128659;27;20126;-73
2022/04/23 11:01:25;;;;;;;11.23;9.13;;;17.40;52.80;;;;;;5092571;27;20066;-75
2022/04/23 11:04:06;;;;;;;9.93;8.90;;;17.40;52.90;;;;;;5107611;27;20343;-76
2022/04/23 11:12:22;;;;;;;11.70;9.52;;;17.40;53.60;;;;;;5125429;27;20082;-74
2022/04/23 11:14:52;;;;;;;11.15;10.07;;;17.60;53.70;;;;;;5103917;27;20094;-79
2022/04/23 11:17:23;;;;;;;11.50;9.48;;;17.70;53.60;;;;;;5117859;27;20439;-79
2022/04/23 11:19:54;;;;;;;10.48;9.48;;;17.60;55.10;;;;;;5141667;27;20111;-73
2022/04/23 11:22:21;;;;;;;13.60;9.55;;;17.80;53.40;;;;;;5108779;27;20421;-78
2022/04/23 11:24:48;;;;;;;13.18;9.45;;;17.80;53.10;;;;;;5112570;27;20675;-80
2022/04/23 11:27:24;;;;;;;9.98;8.93;;;17.80;53.10;;;;;;5121549;27;20054;-78
2022/04/23 11:29:51;;;;;;;10.95;8.50;;;17.90;54.20;;;;;;5111919;27;20099;-80
2022/04/23 11:32:31;;;;;;;11.70;8.70;;;18.00;52.70;;;;;;5111738;27;20690;-80
2022/04/23 11:34:58;;;;;;;12.15;9.57;;;18.10;53.10;;;;;;5126653;27;20046;-78
2022/04/23 11:37:43;;;;;;;11.45;9.30;;;18.30;51.10;;;;;;5105890;27;21205;-73
2022/04/23 11:40:13;;;;;;;11.27;8.07;;;18.30;50.20;;;;;;5122403;27;20046;-81
2022/04/23 11:42:40;;;;;;;10.00;9.10;;;18.10;50.90;;;;;;5103322;27;20086;-72
2022/04/23 11:45:08;;;;;;;11.60;9.65;;;18.20;50.70;;;;;;5103420;27;20047;-72
2022/04/23 11:47:35;;;;;;;10.20;9.10;;;18.20;50.40;;;;;;5121941;27;20049;-79
2022/04/23 11:50:18;;;;;;;14.65;8.95;;;18.10;50.50;;;;;;5098651;27;20043;-75
2022/04/23 11:52:45;;;;;;;11.55;7.30;;;18.10;49.60;;;;;;5121343;27;20076;-75
2022/04/23 11:55:23;;;;;;;12.02;9.13;;;18.20;48.10;;;;;;5116104;27;20888;-76
2022/04/23 11:57:57;;;;;;;17.35;9.75;;;18.10;49.40;;;;;;5120254;27;20046;-76
2022/04/23 12:00:24;;;;;;;13.43;8.85;;;18.10;48.90;;;;;;5106169;27;20070;-78
2022/04/23 12:02:51;;;;;;;11.52;9.43;;;18.10;49.30;;;;;;5093526;27;20204;-75
2022/04/23 12:05:28;;;;;;;14.32;9.32;;;18.30;49.20;;;;;;5106736;27;20110;-78
2022/04/23 12:07:55;;;;;;;12.65;9.95;;;18.30;49.00;;;;;;5105119;27;20051;-78
2022/04/23 12:10:29;;;;;;;12.50;10.13;;;18.40;50.00;;;;;;5109460;27;20260;-75
2022/04/23 12:13:18;;;;;;;10.77;7.53;;;18.30;49.70;;;;;;5125047;27;20047;-77
2022/04/23 12:15:48;;;;;;;8.98;8.00;;;18.30;49.20;;;;;;5117362;27;20055;-78
2022/04/23 12:18:19;;;;;;;8.73;7.55;;;18.50;47.20;;;;;;5105447;27;20488;-77
2022/04/23 12:20:45;;;;;;;9.55;8.15;;;18.50;47.30;;;;;;5114691;27;20091;-81
2022/04/23 12:23:11;;;;;;;9.02;7.30;;;18.60;47.40;;;;;;5112710;27;20047;-80
2022/04/23 12:25:38;;;;;;;12.48;8.07;;;18.50;47.50;;;;;;5105434;27;20062;-73
2022/04/23 12:42:04;;;;;;;8.05;6.68;;;18.60;46.40;;;;;;5116352;27;20058;-76
2022/04/23 12:44:36;;;;;;;8.32;6.72;;;18.60;44.30;;;;;;5139905;27;20165;-74
2022/04/23 12:47:04;;;;;;;12.10;6.30;;;18.70;44.80;;;;;;5122557;27;20412;-75
2022/04/23 12:49:54;;;;;;;7.63;6.30;;;18.70;43.80;;;;;;5094437;27;20628;-76
2022/04/23 12:52:21;;;;;;;9.20;5.68;;;18.80;44.40;;;;;;5105167;27;20082;-74
2022/04/23 12:55:28;;;;;;;8.20;5.78;;;18.80;42.80;;;;;;5127013;27;20062;-74
2022/04/23 12:58:05;;;;;;;7.57;6.07;;;18.90;43.00;;;;;;5126544;27;20103;-75
2022/04/23 13:00:36;;;;;;;7.43;6.10;;;18.80;42.70;;;;;;5110338;27;20129;-77
2022/04/23 13:03:37;;;;;;;11.73;5.15;;;18.80;44.00;;;;;;5125189;27;20575;-75
2022/04/23 13:06:04;;;;;;;12.13;6.32;;;18.90;42.70;;;;;;5110965;27;20485;-74
2022/04/23 13:11:24;;;;;;;9.18;5.78;;;19.20;43.30;;;;;;5124594;27;20509;-79
2022/04/23 13:13:54;;;;;;;6.75;5.05;;;19.20;43.20;;;;;;5104287;27;20463;-75
2022/04/23 13:16:27;;;;;;;7.32;6.55;;;19.30;42.10;;;;;;5084948;27;20657;-73
2022/04/23 13:18:55;;;;;;;10.43;6.30;;;19.40;43.20;;;;;;5122379;27;20511;-75
2022/04/23 13:21:42;;;;;;;8.88;5.97;;;19.40;43.50;;;;;;5105677;27;20079;-74
2022/04/23 13:24:08;;;;;;;20.48;6.30;;;19.40;43.30;;;;;;5104414;27;20056;-74